Time;durP1;ratioP1;P1;durP2;ratioP2;P2;SDS_P1;SDS_P2;PMS_P1;PMS_P2;Temp;Humidity;BMP_temperature;BMP_pressure;BME280_temperature;BME280_humidity;BME280_pressure;Samples;Min_cycle;Max_cycle;Signal;HPM_P1;HPM_P2
2021/06/09 00:01:20;;;;;;;11.77;10.23;;;15.60;83.90;;;;;;5092994;28;20372;-78
2021/06/09 00:03:46;;;;;;;12.15;10.15;;;15.60;84.00;;;;;;5092705;28;20107;-80
2021/06/09 00:06:11;;;;;;;12.15;10.57;;;15.60;83.80;;;;;;5092604;28;20036;-79
2021/06/09 00:08:37;;;;;;;12.00;9.93;;;15.60;84.20;;;;;;5092493;28;20500;-78
2021/06/09 00:11:03;;;;;;;10.55;9.32;;;15.60;84.80;;;;;;5092567;28;20024;-78
2021/06/09 00:13:30;;;;;;;12.25;10.57;;;15.60;83.80;;;;;;5092554;28;20024;-78
2021/06/09 00:15:58;;;;;;;11.32;9.90;;;15.60;83.50;;;;;;5092549;28;20073;-78
2021/06/09 00:18:24;;;;;;;12.77;9.32;;;15.60;83.40;;;;;;5092387;28;20020;-79
2021/06/09 00:20:50;;;;;;;11.90;10.10;;;15.50;83.40;;;;;;5092343;28;20012;-78
2021/06/09 00:23:18;;;;;;;14.15;10.18;;;15.50;83.60;;;;;;5092754;28;20035;-78
2021/06/09 00:25:50;;;;;;;10.65;9.55;;;15.40;83.70;;;;;;5094892;28;20111;-78
2021/06/09 00:28:16;;;;;;;12.35;10.10;;;15.40;83.80;;;;;;5095908;28;20546;-78
2021/06/09 00:30:42;;;;;;;13.52;10.88;;;15.30;84.00;;;;;;5095986;28;20541;-78
2021/06/09 00:33:08;;;;;;;12.65;10.00;;;15.20;84.50;;;;;;5095936;28;20019;-79
2021/06/09 00:35:34;;;;;;;15.20;10.80;;;15.20;84.80;;;;;;5095842;28;20024;-77
2021/06/09 00:38:00;;;;;;;10.60;9.50;;;15.20;84.80;;;;;;5095843;28;20107;-78
2021/06/09 00:40:26;;;;;;;11.32;10.13;;;15.20;84.80;;;;;;5095348;28;20497;-78
2021/06/09 00:43:16;;;;;;;11.45;10.25;;;15.20;84.60;;;;;;5095710;28;20020;-78
2021/06/09 00:45:48;;;;;;;14.68;10.48;;;15.20;84.40;;;;;;5095590;28;20446;-79
2021/06/09 00:48:14;;;;;;;15.75;10.70;;;15.20;84.30;;;;;;5095585;28;20024;-79
2021/06/09 00:50:41;;;;;;;12.85;10.98;;;15.20;84.10;;;;;;5095430;28;20066;-79
2021/06/09 00:55:51;;;;;;;12.75;10.77;;;15.10;84.30;;;;;;5095883;28;20031;-79
2021/06/09 00:58:17;;;;;;;12.48;11.00;;;15.10;84.30;;;;;;5095563;28;20054;-79
2021/06/09 01:00:43;;;;;;;11.75;10.40;;;15.10;84.50;;;;;;5094028;28;20059;-79
2021/06/09 01:03:08;;;;;;;12.15;10.85;;;15.10;84.40;;;;;;5095587;28;20048;-79
2021/06/09 01:05:35;;;;;;;13.40;11.07;;;15.00;84.40;;;;;;5094282;28;20039;-79
2021/06/09 01:08:02;;;;;;;12.88;11.20;;;15.00;84.20;;;;;;5095352;28;20468;-79
2021/06/09 01:10:27;;;;;;;13.63;11.13;;;15.00;84.40;;;;;;5095150;28;20028;-80
2021/06/09 01:12:55;;;;;;;12.77;11.00;;;14.90;84.60;;;;;;5095182;28;20023;-80
2021/06/09 01:15:20;;;;;;;13.57;11.40;;;15.00;84.60;;;;;;5093685;28;20020;-79
2021/06/09 01:17:46;;;;;;;13.13;10.57;;;14.90;84.50;;;;;;5093766;28;20530;-79
2021/06/09 01:20:12;;;;;;;12.25;11.00;;;15.00;84.30;;;;;;5094999;28;20392;-79
2021/06/09 01:22:38;;;;;;;13.98;11.55;;;15.00;84.30;;;;;;5094949;28;20032;-79
2021/06/09 01:25:06;;;;;;;12.90;10.35;;;15.10;84.20;;;;;;5094962;28;20035;-79
2021/06/09 01:27:32;;;;;;;15.13;11.25;;;15.00;84.10;;;;;;5094908;28;20030;-79
2021/06/09 01:30:00;;;;;;;15.50;11.68;;;15.00;84.00;;;;;;5094921;28;20389;-79
2021/06/09 01:32:26;;;;;;;17.50;12.00;;;14.90;84.10;;;;;;5094966;28;20039;-78
2021/06/09 01:34:52;;;;;;;14.93;11.55;;;14.90;84.40;;;;;;5094472;28;20055;-79
2021/06/09 01:37:19;;;;;;;13.13;11.68;;;14.80;84.80;;;;;;5094814;28;20136;-80
2021/06/09 01:39:45;;;;;;;14.52;12.52;;;14.80;85.00;;;;;;5095671;28;20035;-78
2021/06/09 01:42:11;;;;;;;14.18;11.77;;;14.60;85.40;;;;;;5097835;28;20081;-77
2021/06/09 01:44:40;;;;;;;14.85;11.85;;;14.60;85.70;;;;;;5094773;28;20024;-77
2021/06/09 01:47:06;;;;;;;11.98;10.57;;;14.70;85.90;;;;;;5094694;28;20052;-77
2021/06/09 01:49:32;;;;;;;14.25;11.45;;;14.70;85.70;;;;;;5096343;28;20033;-77
2021/06/09 01:51:58;;;;;;;14.23;11.13;;;14.80;85.50;;;;;;5098262;28;20053;-77
2021/06/09 01:54:24;;;;;;;15.32;11.02;;;14.70;85.40;;;;;;5097284;28;20067;-77
2021/06/09 01:56:51;;;;;;;11.90;10.50;;;14.80;85.20;;;;;;5096926;28;20020;-78
2021/06/09 01:59:19;;;;;;;16.65;11.52;;;14.90;84.90;;;;;;5097102;28;20040;-78
2021/06/09 02:01:47;;;;;;;11.80;10.60;;;14.90;84.90;;;;;;5094594;28;20484;-78
2021/06/09 02:04:14;;;;;;;13.43;11.57;;;14.90;84.70;;;;;;5094215;28;20024;-78
2021/06/09 02:06:41;;;;;;;15.07;11.75;;;14.90;84.70;;;;;;5094022;28;20472;-78
2021/06/09 02:09:08;;;;;;;14.00;11.70;;;14.90;84.50;;;;;;5093937;28;20621;-78
2021/06/09 02:11:33;;;;;;;14.00;11.38;;;14.90;84.70;;;;;;5093935;28;20024;-79
2021/06/09 02:14:00;;;;;;;12.63;11.32;;;14.80;84.80;;;;;;5092754;28;20046;-79
2021/06/09 02:16:35;;;;;;;13.15;11.80;;;14.90;84.80;;;;;;5093855;28;20020;-78
2021/06/09 02:19:02;;;;;;;13.90;12.00;;;14.80;84.70;;;;;;5095205;28;20024;-79
2021/06/09 02:21:27;;;;;;;13.98;12.05;;;14.90;84.60;;;;;;5095386;28;20035;-79
2021/06/09 02:23:53;;;;;;;14.32;12.18;;;14.90;84.80;;;;;;5097443;28;20380;-78
2021/06/09 02:26:19;;;;;;;15.80;11.88;;;14.90;85.00;;;;;;5095122;28;20020;-78
2021/06/09 02:28:44;;;;;;;14.10;11.82;;;14.90;85.20;;;;;;5101828;28;20043;-79
2021/06/09 02:31:12;;;;;;;13.93;11.20;;;14.90;85.20;;;;;;5095153;28;20027;-78
2021/06/09 02:33:38;;;;;;;14.35;11.73;;;14.90;85.00;;;;;;5097582;28;20139;-77
2021/06/09 02:36:06;;;;;;;13.18;11.88;;;15.00;84.70;;;;;;5093126;28;20462;-77
2021/06/09 02:38:35;;;;;;;13.32;11.77;;;15.00;84.50;;;;;;5093700;28;20600;-78
2021/06/09 02:41:00;;;;;;;16.90;14.45;;;15.00;84.30;;;;;;5093634;28;20046;-78
2021/06/09 02:43:31;;;;;;;15.25;12.77;;;14.90;84.30;;;;;;5093560;28;20563;-78
2021/06/09 02:46:05;;;;;;;14.63;12.23;;;14.80;85.00;;;;;;5092633;28;20050;-78
2021/06/09 02:48:33;;;;;;;13.05;11.63;;;14.70;84.90;;;;;;5107095;28;20004;-79
2021/06/09 02:51:01;;;;;;;17.27;12.48;;;14.70;85.10;;;;;;5118580;28;20095;-78
2021/06/09 02:53:34;;;;;;;18.02;12.93;;;14.70;85.20;;;;;;5099938;28;20016;-78
2021/06/09 02:56:27;;;;;;;14.38;12.88;;;14.80;85.10;;;;;;5093465;28;20153;-78
2021/06/09 02:59:12;;;;;;;12.32;11.02;;;14.70;84.90;;;;;;5093425;28;20085;-78
2021/06/09 03:01:46;;;;;;;15.23;11.57;;;14.70;84.70;;;;;;5093186;28;20032;-77
2021/06/09 03:04:30;;;;;;;12.98;11.68;;;14.70;84.70;;;;;;5093350;28;20034;-78
2021/06/09 03:07:00;;;;;;;13.23;11.43;;;14.80;84.50;;;;;;5093064;28;20468;-78
2021/06/09 03:09:34;;;;;;;12.90;11.10;;;14.70;84.40;;;;;;5093014;28;20468;-78
2021/06/09 03:12:14;;;;;;;13.98;11.63;;;14.80;84.10;;;;;;5093098;28;20443;-78
2021/06/09 03:17:38;;;;;;;12.93;11.15;;;14.80;83.80;;;;;;5093222;28;20030;-78
2021/06/09 03:20:26;;;;;;;12.30;11.07;;;14.70;83.40;;;;;;5093065;28;20057;-78
2021/06/09 03:23:26;;;;;;;12.00;10.02;;;14.60;83.40;;;;;;5093062;28;20423;-79
2021/06/09 03:26:01;;;;;;;12.80;10.70;;;14.70;83.70;;;;;;5063809;28;20477;-79
2021/06/09 03:28:41;;;;;;;11.02;9.93;;;14.60;83.60;;;;;;5091512;28;20453;-79
2021/06/09 03:31:11;;;;;;;13.68;11.13;;;14.60;83.70;;;;;;5092709;28;20057;-79
2021/06/09 03:33:41;;;;;;;11.73;10.52;;;14.60;83.90;;;;;;5093023;28;20024;-79
2021/06/09 03:36:40;;;;;;;13.02;10.18;;;14.60;84.00;;;;;;5093233;28;20024;-79
2021/06/09 03:39:08;;;;;;;12.73;10.77;;;14.50;83.90;;;;;;5060298;28;20395;-79
2021/06/09 03:41:42;;;;;;;12.45;10.30;;;14.60;83.90;;;;;;5092787;28;20023;-79
2021/06/09 03:44:10;;;;;;;15.30;12.05;;;14.50;83.90;;;;;;5092881;28;20021;-78
2021/06/09 03:46:37;;;;;;;13.93;11.80;;;14.50;83.90;;;;;;5092479;28;20044;-77
2021/06/09 03:49:10;;;;;;;14.70;12.02;;;14.60;84.10;;;;;;5092667;28;20060;-81
2021/06/09 03:51:39;;;;;;;14.68;11.77;;;14.60;84.20;;;;;;5092730;28;20020;-80
2021/06/09 03:54:05;;;;;;;13.98;11.90;;;14.50;84.20;;;;;;5092775;28;20023;-81
2021/06/09 03:56:32;;;;;;;13.70;12.20;;;14.50;84.20;;;;;;5092571;28;20021;-81
2021/06/09 03:59:00;;;;;;;14.10;12.60;;;14.50;84.20;;;;;;5094308;28;20028;-81
2021/06/09 04:01:30;;;;;;;16.50;13.00;;;14.60;84.20;;;;;;5096795;28;20016;-81
2021/06/09 04:03:58;;;;;;;17.08;13.80;;;14.60;84.30;;;;;;5096438;28;20024;-80
2021/06/09 04:06:24;;;;;;;15.35;13.07;;;14.70;84.20;;;;;;5096459;28;20438;-80
2021/06/09 04:08:50;;;;;;;17.77;14.90;;;14.60;84.30;;;;;;5096143;28;20032;-81
2021/06/09 04:11:19;;;;;;;21.85;15.45;;;14.70;84.70;;;;;;5096395;28;20016;-81
2021/06/09 04:13:47;;;;;;;18.48;14.52;;;14.60;84.80;;;;;;5096325;28;20027;-81
2021/06/09 04:16:14;;;;;;;20.17;15.65;;;14.60;85.30;;;;;;5096300;28;20024;-81
2021/06/09 04:18:44;;;;;;;19.27;15.57;;;14.60;85.30;;;;;;5096190;28;20027;-81
2021/06/09 04:21:10;;;;;;;20.08;15.30;;;14.60;85.60;;;;;;5096130;28;20021;-80
2021/06/09 04:23:37;;;;;;;16.77;13.27;;;14.60;85.60;;;;;;5096041;28;20028;-81
2021/06/09 04:26:04;;;;;;;19.20;14.05;;;14.70;85.60;;;;;;5096130;28;20028;-80
2021/06/09 04:28:30;;;;;;;14.43;12.80;;;14.80;85.60;;;;;;5095513;28;20035;-79
2021/06/09 04:30:56;;;;;;;20.42;15.20;;;14.80;85.50;;;;;;5095997;28;20024;-79
2021/06/09 04:33:31;;;;;;;19.80;14.60;;;14.90;85.50;;;;;;5096140;28;20055;-79
2021/06/09 04:35:57;;;;;;;23.80;16.77;;;15.00;85.00;;;;;;5096055;28;20024;-78
2021/06/09 04:38:23;;;;;;;20.65;16.23;;;15.00;85.10;;;;;;5095992;28;20610;-79
2021/06/09 04:40:55;;;;;;;18.20;14.25;;;15.00;85.10;;;;;;5095971;28;20030;-81
2021/06/09 04:43:23;;;;;;;17.80;15.02;;;14.90;85.20;;;;;;5095989;28;20492;-81
2021/06/09 04:45:49;;;;;;;18.77;15.07;;;14.90;85.50;;;;;;5095507;28;20519;-80
2021/06/09 04:48:16;;;;;;;20.20;14.77;;;14.90;85.30;;;;;;5095560;28;20028;-80
2021/06/09 04:50:44;;;;;;;18.77;13.18;;;15.00;85.40;;;;;;5094186;28;20039;-78
2021/06/09 04:53:10;;;;;;;19.48;14.80;;;15.10;85.40;;;;;;5095554;28;20482;-78
2021/06/09 04:55:47;;;;;;;18.98;14.55;;;15.10;85.40;;;;;;5095577;28;20084;-79
2021/06/09 04:58:15;;;;;;;19.60;14.50;;;15.20;85.50;;;;;;5095405;28;20035;-79
2021/06/09 05:00:42;;;;;;;16.40;14.07;;;15.20;85.30;;;;;;5095411;28;20027;-80
2021/06/09 05:03:08;;;;;;;19.98;14.93;;;15.20;85.20;;;;;;5094134;28;20077;-79
2021/06/09 05:05:34;;;;;;;15.90;13.85;;;15.30;85.50;;;;;;5095226;28;20020;-79
2021/06/09 05:08:00;;;;;;;20.77;15.75;;;15.30;85.40;;;;;;5095291;28;20524;-79
2021/06/09 05:10:25;;;;;;;16.98;13.88;;;15.40;85.40;;;;;;5094449;28;20028;-81
2021/06/09 05:13:19;;;;;;;23.25;15.82;;;15.40;85.20;;;;;;5094026;28;20052;-80
2021/06/09 05:15:51;;;;;;;22.02;14.80;;;15.40;85.20;;;;;;5087801;28;20040;-81
2021/06/09 05:18:21;;;;;;;19.08;15.32;;;15.40;85.20;;;;;;5095060;28;20081;-81
2021/06/09 05:20:49;;;;;;;20.75;16.27;;;15.50;85.10;;;;;;5094812;28;20027;-83
2021/06/09 05:23:19;;;;;;;17.90;15.07;;;15.60;85.00;;;;;;5094873;28;20031;-81
2021/06/09 05:25:48;;;;;;;22.65;17.10;;;15.50;85.60;;;;;;5094315;28;20028;-80
2021/06/09 05:28:15;;;;;;;24.92;17.48;;;15.60;85.40;;;;;;5094569;28;20024;-81
2021/06/09 05:30:41;;;;;;;21.85;16.80;;;15.60;85.10;;;;;;5092705;28;20173;-81
2021/06/09 05:33:08;;;;;;;22.83;17.05;;;15.60;84.90;;;;;;5092969;28;20020;-80
2021/06/09 05:35:34;;;;;;;19.25;15.95;;;15.70;85.00;;;;;;5094213;28;20043;-80
2021/06/09 05:38:01;;;;;;;19.63;15.27;;;15.90;84.90;;;;;;5094662;28;20350;-80
2021/06/09 05:40:27;;;;;;;17.38;14.48;;;16.00;84.40;;;;;;5094781;28;20028;-81
2021/06/09 05:42:53;;;;;;;19.63;14.82;;;16.10;84.20;;;;;;5094832;28;20039;-81
2021/06/09 05:45:33;;;;;;;20.45;16.75;;;16.30;84.10;;;;;;5094298;28;20024;-82
2021/06/09 05:48:00;;;;;;;17.30;15.45;;;16.50;83.50;;;;;;5094639;28;20036;-82
2021/06/09 05:50:30;;;;;;;16.92;15.13;;;16.60;83.00;;;;;;5093954;28;20472;-81
2021/06/09 05:52:58;;;;;;;19.92;14.65;;;16.70;83.00;;;;;;5094405;28;20506;-81
2021/06/09 05:55:26;;;;;;;18.95;15.27;;;16.90;82.70;;;;;;5101438;28;20028;-80
2021/06/09 05:57:52;;;;;;;15.95;13.82;;;17.00;82.10;;;;;;5108855;28;20103;-80
2021/06/09 06:00:21;;;;;;;15.40;13.80;;;17.10;81.80;;;;;;5115413;28;20027;-81
2021/06/09 06:02:48;;;;;;;20.75;15.45;;;17.30;81.60;;;;;;5105733;28;20027;-82
2021/06/09 06:05:14;;;;;;;20.85;17.27;;;17.40;80.90;;;;;;5094438;28;20028;-82
2021/06/09 06:07:39;;;;;;;19.38;14.60;;;17.50;80.50;;;;;;5094787;28;20379;-81
2021/06/09 06:10:07;;;;;;;19.65;16.25;;;17.50;80.40;;;;;;5094366;28;20047;-81
2021/06/09 06:12:34;;;;;;;21.42;16.73;;;17.60;80.00;;;;;;5099149;28;20020;-82
2021/06/09 06:15:00;;;;;;;24.65;17.42;;;17.70;79.70;;;;;;5100315;28;20031;-82
2021/06/09 06:17:26;;;;;;;21.27;16.08;;;17.80;79.60;;;;;;5093800;28;20099;-77
2021/06/09 06:19:52;;;;;;;25.10;17.90;;;18.00;79.40;;;;;;5093400;28;20138;-78
2021/06/09 06:22:19;;;;;;;21.00;17.33;;;18.10;79.20;;;;;;5093559;28;20081;-79
2021/06/09 06:24:47;;;;;;;21.25;16.35;;;18.20;78.70;;;;;;5093593;28;20020;-78
2021/06/09 06:27:14;;;;;;;26.80;17.65;;;18.30;78.70;;;;;;5093651;28;20028;-79
2021/06/09 06:29:41;;;;;;;32.40;22.48;;;18.40;78.30;;;;;;5093690;28;20028;-78
2021/06/09 06:32:09;;;;;;;29.70;19.50;;;18.40;78.30;;;;;;5093611;28;20035;-79
2021/06/09 06:34:51;;;;;;;27.52;20.65;;;18.50;78.40;;;;;;5093526;28;20024;-78
2021/06/09 06:37:22;;;;;;;25.23;16.92;;;18.70;78.20;;;;;;5093398;28;20032;-77
2021/06/09 06:39:48;;;;;;;28.52;18.92;;;18.80;77.90;;;;;;5092464;28;20027;-76
2021/06/09 06:42:16;;;;;;;30.15;21.67;;;18.80;77.40;;;;;;5092803;28;20416;-76
2021/06/09 06:44:42;;;;;;;26.45;18.73;;;19.00;77.10;;;;;;5097569;28;20031;-77
2021/06/09 06:47:09;;;;;;;23.10;17.65;;;19.10;77.10;;;;;;5093083;28;20122;-83
2021/06/09 06:49:36;;;;;;;27.48;18.42;;;19.20;76.80;;;;;;5092076;28;20035;-77
2021/06/09 06:52:02;;;;;;;36.58;19.45;;;19.30;77.00;;;;;;5093164;28;20139;-75
2021/06/09 06:54:28;;;;;;;30.25;19.38;;;19.30;78.00;;;;;;5093032;28;20059;-76
2021/06/09 06:56:55;;;;;;;41.10;20.75;;;19.50;79.10;;;;;;5093120;28;20435;-84
2021/06/09 06:59:23;;;;;;;34.28;19.13;;;19.60;77.90;;;;;;5091875;28;20491;-82
2021/06/09 07:01:49;;;;;;;23.25;17.80;;;19.70;76.80;;;;;;5093051;28;20099;-81
2021/06/09 07:04:16;;;;;;;25.35;16.90;;;19.90;75.60;;;;;;5093229;28;20108;-81
2021/06/09 07:06:43;;;;;;;33.13;19.58;;;20.10;75.10;;;;;;5093218;28;20035;-82
2021/06/09 07:09:10;;;;;;;29.13;20.70;;;20.10;74.50;;;;;;5093073;28;20079;-80
2021/06/09 07:11:38;;;;;;;64.15;26.23;;;20.40;73.50;;;;;;5092768;28;20027;-81
2021/06/09 07:14:04;;;;;;;40.53;22.73;;;20.60;73.40;;;;;;5092999;28;20465;-81
2021/06/09 07:16:32;;;;;;;38.28;22.08;;;20.60;71.90;;;;;;5092190;28;20081;-85
2021/06/09 07:18:58;;;;;;;32.35;24.42;;;20.70;71.60;;;;;;5092688;28;20027;-83
2021/06/09 07:21:24;;;;;;;34.72;21.05;;;20.80;71.00;;;;;;5091779;28;20031;-85
2021/06/09 07:23:50;;;;;;;26.65;21.08;;;20.80;70.70;;;;;;5092696;28;20024;-78
2021/06/09 07:26:17;;;;;;;30.98;20.75;;;20.70;70.50;;;;;;5092749;28;20488;-79
2021/06/09 07:28:48;;;;;;;29.80;18.83;;;20.70;71.30;;;;;;5092448;28;20044;-78
2021/06/09 07:31:22;;;;;;;23.35;18.23;;;20.70;71.40;;;;;;5092559;28;20024;-78
2021/06/09 07:33:48;;;;;;;31.10;22.05;;;20.80;70.60;;;;;;5095791;28;20052;-81
2021/06/09 07:36:19;;;;;;;27.20;20.58;;;20.70;70.50;;;;;;5096881;28;20056;-80
2021/06/09 07:38:50;;;;;;;26.30;21.70;;;20.60;71.20;;;;;;5097004;28;20031;-79
2021/06/09 07:41:16;;;;;;;24.65;20.77;;;20.20;72.30;;;;;;5095615;28;20031;-79
2021/06/09 07:43:44;;;;;;;26.13;19.55;;;20.10;72.80;;;;;;5096905;28;20613;-80
2021/06/09 07:46:17;;;;;;;26.33;21.23;;;20.20;72.20;;;;;;5095339;28;20051;-78
2021/06/09 07:48:47;;;;;;;22.70;18.02;;;20.40;71.90;;;;;;5096937;28;20039;-78
2021/06/09 07:51:14;;;;;;;25.23;20.42;;;20.60;71.60;;;;;;5096666;28;20172;-78
2021/06/09 07:53:41;;;;;;;25.30;20.48;;;20.80;70.20;;;;;;5096351;28;20020;-78
2021/06/09 07:56:12;;;;;;;21.02;17.83;;;20.80;69.50;;;;;;5096434;28;20025;-79
2021/06/09 07:58:40;;;;;;;25.13;17.02;;;20.90;69.40;;;;;;5096314;28;20021;-79
2021/06/09 08:01:05;;;;;;;17.25;14.80;;;20.90;69.60;;;;;;5094971;28;20085;-79
2021/06/09 08:03:33;;;;;;;17.30;15.15;;;21.20;69.70;;;;;;5096343;28;20032;-78
2021/06/09 08:06:02;;;;;;;19.92;16.67;;;21.30;69.40;;;;;;5096135;28;20107;-76
2021/06/09 08:08:30;;;;;;;21.98;18.25;;;21.30;68.70;;;;;;5096025;28;20035;-80
2021/06/09 08:10:56;;;;;;;20.15;16.92;;;21.20;68.70;;;;;;5096061;28;20024;-80
2021/06/09 08:13:22;;;;;;;21.75;18.67;;;21.20;68.90;;;;;;5095969;28;20107;-78
2021/06/09 08:15:48;;;;;;;21.38;15.68;;;21.10;68.70;;;;;;5096183;28;20111;-79
2021/06/09 08:18:13;;;;;;;15.45;13.82;;;21.10;69.60;;;;;;5096806;28;20024;-76
2021/06/09 08:21:03;;;;;;;22.92;16.70;;;21.40;70.00;;;;;;5103012;28;20465;-79
2021/06/09 08:23:28;;;;;;;16.17;13.02;;;21.40;67.60;;;;;;5096660;28;20032;-79
2021/06/09 08:25:54;;;;;;;21.42;14.45;;;21.50;67.90;;;;;;5096252;28;20017;-83
2021/06/09 08:28:19;;;;;;;18.38;16.35;;;21.70;67.70;;;;;;5096199;28;20043;-83
2021/06/09 08:30:45;;;;;;;15.15;13.55;;;21.80;66.90;;;;;;5096747;28;20020;-77
2021/06/09 08:33:10;;;;;;;14.15;12.32;;;21.80;66.80;;;;;;5095978;28;20028;-78
2021/06/09 08:35:36;;;;;;;11.98;10.77;;;22.00;66.30;;;;;;5095822;28;20020;-80
2021/06/09 08:38:01;;;;;;;16.88;12.95;;;22.20;65.20;;;;;;5094542;28;20032;-78
2021/06/09 08:40:31;;;;;;;14.55;12.98;;;22.30;62.80;;;;;;5095768;28;20600;-78
2021/06/09 08:42:58;;;;;;;15.15;12.70;;;22.30;62.90;;;;;;5094469;28;20036;-78
2021/06/09 08:45:24;;;;;;;15.05;13.55;;;22.20;62.40;;;;;;5105361;28;20024;-78
2021/06/09 08:47:51;;;;;;;15.30;10.90;;;21.90;63.70;;;;;;5106749;28;20028;-77
2021/06/09 08:50:19;;;;;;;12.48;11.18;;;22.00;64.20;;;;;;5118955;28;20023;-78
2021/06/09 08:52:48;;;;;;;12.32;10.30;;;22.20;63.60;;;;;;5117844;28;20073;-82
2021/06/09 08:55:14;;;;;;;12.30;10.05;;;22.20;63.70;;;;;;5112476;28;20024;-78
2021/06/09 08:57:40;;;;;;;14.32;12.23;;;22.40;63.80;;;;;;5101411;28;20027;-78
2021/06/09 09:00:08;;;;;;;13.73;11.35;;;22.60;61.40;;;;;;5098413;28;20024;-76
2021/06/09 09:02:35;;;;;;;13.15;10.25;;;22.50;60.10;;;;;;5097597;28;20111;-76
2021/06/09 09:05:00;;;;;;;11.60;9.82;;;22.30;60.40;;;;;;5096225;28;20024;-77
2021/06/09 09:07:28;;;;;;;13.38;10.88;;;22.20;61.60;;;;;;5095655;28;20389;-81
2021/06/09 09:09:56;;;;;;;12.00;10.75;;;22.30;62.10;;;;;;5095405;28;20024;-77
2021/06/09 09:12:22;;;;;;;15.38;11.32;;;22.50;62.30;;;;;;5095252;28;20109;-81
2021/06/09 09:14:48;;;;;;;11.38;10.18;;;22.70;61.20;;;;;;5095024;28;20066;-78
2021/06/09 09:17:14;;;;;;;12.32;10.15;;;22.50;60.30;;;;;;5095017;28;20024;-82
2021/06/09 09:19:45;;;;;;;11.35;9.75;;;22.60;60.90;;;;;;5095044;28;20051;-81
2021/06/09 09:22:31;;;;;;;13.93;12.30;;;22.90;61.70;;;;;;5110654;28;20024;-81
2021/06/09 09:24:57;;;;;;;17.17;11.43;;;22.90;61.60;;;;;;5094816;28;20081;-82
2021/06/09 09:27:28;;;;;;;12.73;11.43;;;23.20;61.30;;;;;;5093523;28;20031;-77
2021/06/09 09:30:00;;;;;;;11.77;10.32;;;23.40;61.00;;;;;;5093515;28;20431;-77
2021/06/09 09:32:26;;;;;;;12.52;10.15;;;23.50;61.40;;;;;;5093331;28;20027;-76
2021/06/09 09:34:51;;;;;;;13.48;11.63;;;23.60;60.00;;;;;;5094607;28;20024;-80
2021/06/09 09:37:25;;;;;;;13.75;11.02;;;23.60;60.90;;;;;;5094697;28;20024;-77
2021/06/09 09:40:04;;;;;;;11.98;10.68;;;23.60;60.50;;;;;;5094733;28;20032;-80
2021/06/09 09:42:34;;;;;;;16.13;12.35;;;23.50;59.80;;;;;;5094652;28;20016;-79
2021/06/09 09:45:26;;;;;;;11.00;9.95;;;23.50;60.10;;;;;;5095495;28;20043;-81
2021/06/09 09:48:03;;;;;;;12.80;10.25;;;23.60;59.60;;;;;;5111071;28;20028;-80
2021/06/09 09:50:35;;;;;;;15.05;11.90;;;23.90;59.90;;;;;;5096591;28;20032;-80
2021/06/09 09:53:18;;;;;;;15.15;12.45;;;24.10;58.90;;;;;;5098598;28;20526;-75
2021/06/09 09:56:24;;;;;;;13.90;11.50;;;24.00;59.10;;;;;;5105748;28;20028;-76
2021/06/09 09:59:00;;;;;;;11.02;9.63;;;23.70;59.70;;;;;;5100806;28;20032;-80
2021/06/09 10:01:32;;;;;;;17.27;12.38;;;23.80;59.30;;;;;;5112502;28;20404;-77
2021/06/09 10:04:00;;;;;;;11.10;10.00;;;24.20;59.40;;;;;;5101120;28;20022;-75
2021/06/09 10:06:55;;;;;;;12.80;11.20;;;24.40;58.60;;;;;;5094667;28;20024;-77
2021/06/09 10:09:26;;;;;;;11.95;10.25;;;24.70;55.30;;;;;;5081155;28;20055;-75
2021/06/09 10:11:59;;;;;;;10.82;9.73;;;24.40;54.60;;;;;;5094422;28;20709;-75
2021/06/09 10:14:30;;;;;;;13.95;9.90;;;24.50;55.00;;;;;;5095852;28;20360;-75
2021/06/09 10:17:06;;;;;;;11.25;10.15;;;24.50;56.10;;;;;;5093584;28;20165;-75
2021/06/09 10:19:43;;;;;;;10.15;9.13;;;24.60;56.30;;;;;;5093508;28;20020;-75
2021/06/09 10:22:18;;;;;;;10.38;9.38;;;24.80;55.20;;;;;;5093495;28;20019;-75
2021/06/09 10:24:48;;;;;;;9.73;8.73;;;25.00;54.90;;;;;;5093180;28;20103;-75
2021/06/09 10:27:19;;;;;;;13.77;9.18;;;25.20;52.40;;;;;;5093172;28;20028;-75
2021/06/09 10:29:45;;;;;;;12.55;9.50;;;25.10;52.60;;;;;;5091774;28;20086;-76
2021/06/09 10:32:16;;;;;;;28.77;12.13;;;25.10;52.50;;;;;;5093315;28;20023;-77
2021/06/09 10:34:42;;;;;;;14.02;10.45;;;25.20;52.60;;;;;;5093159;28;20020;-74
2021/06/09 10:37:09;;;;;;;13.25;9.63;;;25.00;53.30;;;;;;5092965;28;20065;-74
2021/06/09 10:39:38;;;;;;;12.27;9.93;;;25.20;53.70;;;;;;5093017;28;20027;-75
2021/06/09 10:42:15;;;;;;;10.40;9.40;;;25.20;51.90;;;;;;5092902;28;20032;-75
2021/06/09 10:44:45;;;;;;;16.95;9.70;;;25.00;51.60;;;;;;5093173;28;20024;-75
2021/06/09 10:47:17;;;;;;;11.63;8.82;;;24.80;52.50;;;;;;5093108;28;20036;-75
2021/06/09 10:49:43;;;;;;;12.93;8.52;;;24.80;52.30;;;;;;5091159;28;20096;-75
2021/06/09 10:52:11;;;;;;;12.45;9.38;;;25.10;52.60;;;;;;5091374;28;20035;-75
2021/06/09 10:54:36;;;;;;;11.68;8.57;;;25.50;51.80;;;;;;5092600;28;20028;-75
2021/06/09 10:57:03;;;;;;;8.95;7.45;;;25.80;49.40;;;;;;5092755;28;20498;-75
2021/06/09 10:59:31;;;;;;;9.95;9.05;;;25.90;46.70;;;;;;5092451;28;20096;-78
2021/06/09 11:02:08;;;;;;;14.23;8.95;;;25.70;49.70;;;;;;5092804;28;20020;-76
2021/06/09 11:04:46;;;;;;;9.10;8.20;;;25.60;49.00;;;;;;5092711;28;20063;-75
2021/06/09 11:07:35;;;;;;;12.07;9.13;;;25.80;49.60;;;;;;5092337;28;20125;-76
2021/06/09 11:10:04;;;;;;;9.25;7.70;;;26.20;50.10;;;;;;5092683;28;20119;-75
2021/06/09 11:12:36;;;;;;;9.13;7.25;;;26.60;46.80;;;;;;5093598;28;20104;-76
2021/06/09 11:15:12;;;;;;;7.65;6.95;;;26.90;44.80;;;;;;5107982;28;20129;-75
2021/06/09 11:17:47;;;;;;;8.27;7.45;;;27.00;44.60;;;;;;5093399;28;20468;-76
2021/06/09 11:20:26;;;;;;;9.82;7.60;;;27.20;45.00;;;;;;5093035;28;20027;-76
2021/06/09 11:22:55;;;;;;;11.15;7.90;;;27.10;43.90;;;;;;5093593;28;20024;-76
2021/06/09 11:25:21;;;;;;;10.10;6.97;;;26.90;43.60;;;;;;5093429;28;20046;-79
2021/06/09 11:28:06;;;;;;;9.63;7.40;;;27.20;45.00;;;;;;5093919;28;20466;-78
2021/06/09 11:30:31;;;;;;;7.78;7.07;;;27.30;43.20;;;;;;5093251;28;20032;-78
2021/06/09 11:33:04;;;;;;;9.60;8.05;;;27.70;42.80;;;;;;5092722;28;20438;-78
2021/06/09 11:35:46;;;;;;;7.50;6.88;;;27.90;40.60;;;;;;5092446;28;20054;-79
2021/06/09 11:38:11;;;;;;;9.27;7.47;;;28.10;42.00;;;;;;5094356;28;20023;-79
2021/06/09 11:40:48;;;;;;;8.52;7.03;;;27.90;40.10;;;;;;5092360;28;20099;-79
2021/06/09 11:43:17;;;;;;;7.07;6.45;;;27.70;40.20;;;;;;5092537;28;20043;-78
2021/06/09 11:45:51;;;;;;;8.20;6.72;;;27.80;40.50;;;;;;5092296;28;20048;-78
2021/06/09 11:48:20;;;;;;;8.13;6.22;;;28.10;40.10;;;;;;5090948;28;20550;-79
2021/06/09 11:50:46;;;;;;;6.95;6.13;;;28.40;40.60;;;;;;5092421;28;20107;-79
2021/06/09 11:53:20;;;;;;;7.97;7.18;;;28.80;40.30;;;;;;5092341;28;20051;-79
2021/06/09 11:56:16;;;;;;;7.93;7.22;;;28.90;38.50;;;;;;5091844;28;20046;-79
2021/06/09 11:58:45;;;;;;;10.88;7.32;;;28.30;38.20;;;;;;5090119;28;20020;-79
2021/06/09 12:01:12;;;;;;;11.30;6.55;;;27.80;38.90;;;;;;5091750;28;20118;-80
2021/06/09 12:03:42;;;;;;;6.63;6.03;;;28.10;40.20;;;;;;5092152;28;20024;-79
2021/06/09 12:06:19;;;;;;;9.05;6.57;;;28.50;40.10;;;;;;5092201;28;20407;-79
2021/06/09 12:08:49;;;;;;;7.43;6.15;;;28.70;39.10;;;;;;5107750;28;20024;-79
2021/06/09 12:11:16;;;;;;;7.47;5.90;;;28.90;39.20;;;;;;5092186;28;20035;-78
2021/06/09 12:13:43;;;;;;;8.18;7.38;;;29.40;39.20;;;;;;5092235;28;20020;-79
2021/06/09 12:16:15;;;;;;;7.78;6.97;;;29.30;37.20;;;;;;5092414;28;20074;-78
2021/06/09 12:18:48;;;;;;;7.80;7.00;;;28.60;37.50;;;;;;5093020;28;20024;-79
2021/06/09 12:21:16;;;;;;;8.00;7.20;;;28.50;38.00;;;;;;5095866;28;20104;-78
2021/06/09 12:24:00;;;;;;;8.90;6.95;;;28.20;38.40;;;;;;5095681;28;20035;-78
2021/06/09 12:26:26;;;;;;;8.20;6.88;;;28.00;37.90;;;;;;5095835;28;20016;-79
2021/06/09 12:29:05;;;;;;;8.48;7.68;;;28.10;38.70;;;;;;5095813;28;20050;-78
2021/06/09 12:31:35;;;;;;;9.27;7.97;;;27.90;40.20;;;;;;5095556;28;20366;-78
2021/06/09 12:34:01;;;;;;;9.95;7.57;;;27.50;42.00;;;;;;5095740;28;20078;-78
2021/06/09 12:36:27;;;;;;;8.55;6.57;;;27.10;43.20;;;;;;5095542;28;20405;-79
2021/06/09 12:38:53;;;;;;;8.50;6.80;;;26.70;42.80;;;;;;5095480;28;20119;-78
2021/06/09 12:41:29;;;;;;;9.13;6.63;;;25.90;43.20;;;;;;5095374;28;20028;-79
2021/06/09 12:44:10;;;;;;;8.65;6.93;;;25.40;44.40;;;;;;5095296;28;20081;-79
2021/06/09 12:46:35;;;;;;;7.82;5.35;;;25.00;45.10;;;;;;5095377;28;20055;-80
2021/06/09 12:49:01;;;;;;;7.10;5.90;;;24.60;42.70;;;;;;5094362;28;20024;-80